createdAt,value
2019-06-01T00:03:11.842Z,27.63
2019-06-01T00:06:34.295Z,27.43
2019-06-01T00:09:56.451Z,28.17
2019-06-01T00:13:18.763Z,32.37
2019-06-01T00:16:42.022Z,31.47
2019-06-01T00:20:04.950Z,31.53
2019-06-01T00:23:27.459Z,33.63
2019-06-01T00:26:49.953Z,33.43
2019-06-01T00:30:26.521Z,36.40
2019-06-01T00:33:38.719Z,34.37
2019-06-01T00:37:01.287Z,35.83
2019-06-01T00:40:23.943Z,36.97
2019-06-01T00:43:46.353Z,36.43
2019-06-01T00:47:09.110Z,34.60
2019-06-01T00:50:31.760Z,36.17
2019-06-01T00:53:54.191Z,37.87
2019-06-01T00:57:16.301Z,38.53
2019-06-01T01:00:43.725Z,36.40
2019-06-01T01:04:03.272Z,38.70
2019-06-01T01:07:25.407Z,37.03
2019-06-01T01:10:49.096Z,37.77
2019-06-01T01:14:11.278Z,37.23
2019-06-01T01:17:33.726Z,38.57
2019-06-01T01:20:57.009Z,37.13
2019-06-01T01:24:19.443Z,40.47
2019-06-01T01:27:41.519Z,38.50
2019-06-01T01:31:13.309Z,40.27
2019-06-01T01:34:27.903Z,37.33
2019-06-01T01:37:51.837Z,40.13
2019-06-01T01:41:14.464Z,38.20
2019-06-01T01:44:37.118Z,37.13
2019-06-01T01:47:59.817Z,36.80
2019-06-01T01:51:22.227Z,37.40
2019-06-01T01:54:44.896Z,35.20
2019-06-01T01:58:07.213Z,33.30
2019-06-01T02:01:29.798Z,38.03
2019-06-01T02:04:53.675Z,40.33
2019-06-01T02:08:16.466Z,39.93
2019-06-01T02:11:38.959Z,39.63
2019-06-01T02:15:02.118Z,37.67
2019-06-01T02:18:24.929Z,38.40
2019-06-01T02:21:47.600Z,37.77
2019-06-01T02:25:10.439Z,38.80
2019-06-01T02:28:33.073Z,38.07
2019-06-01T02:31:56.666Z,38.97
2019-06-01T02:35:19.327Z,37.13
2019-06-01T02:38:41.664Z,39.23
2019-06-01T02:42:05.399Z,36.20
2019-06-01T02:45:28.460Z,34.90
2019-06-01T02:48:51.076Z,34.63
2019-06-01T02:52:13.874Z,36.97
2019-06-01T02:55:36.141Z,35.83
2019-06-01T02:59:18.244Z,33.03
2019-06-01T03:02:41.202Z,32.67
2019-06-01T03:06:05.504Z,34.87
2019-06-01T03:09:29.830Z,32.40
2019-06-01T03:12:55.076Z,32.37
2019-06-01T03:16:20.842Z,32.70
2019-06-01T03:19:46.293Z,31.03
2019-06-01T03:23:12.083Z,29.93
2019-06-01T03:26:40.866Z,29.03
2019-06-01T03:30:08.527Z,30.57
2019-06-01T03:33:30.079Z,31.23
2019-06-01T03:36:56.109Z,28.10
2019-06-01T03:40:23.851Z,29.00
2019-06-01T03:43:41.039Z,26.87
2019-06-01T03:47:03.926Z,26.57
2019-06-01T03:50:26.600Z,24.57
2019-06-01T03:53:48.942Z,24.63
2019-06-01T03:57:11.279Z,25.47
2019-06-01T04:00:34.051Z,25.63
2019-06-01T04:03:57.220Z,24.80
2019-06-01T04:07:19.972Z,23.37
2019-06-01T04:10:42.181Z,21.93
2019-06-01T04:14:05.618Z,20.03
2019-06-01T04:17:28.320Z,18.43
2019-06-01T04:20:50.642Z,17.87
2019-06-01T04:24:13.120Z,18.10
2019-06-01T04:27:35.169Z,17.75
2019-06-01T04:30:57.660Z,16.07
2019-06-01T04:34:19.827Z,16.27
2019-06-01T04:37:42.533Z,16.10
2019-06-01T04:41:05.711Z,15.53
2019-06-01T04:44:28.673Z,16.20
2019-06-01T04:47:51.331Z,14.83
2019-06-01T04:51:14.951Z,16.80
2019-06-01T04:54:37.733Z,17.15
2019-06-01T04:58:00.204Z,16.65
2019-06-01T05:01:22.773Z,17.35
2019-06-01T05:04:45.344Z,18.27
2019-06-01T05:08:09.322Z,18.35
2019-06-01T05:11:32.181Z,19.73
2019-06-01T05:14:54.335Z,18.77
2019-06-01T05:18:19.536Z,20.43
2019-06-01T05:21:43.464Z,20.02
2019-06-01T05:25:06.800Z,20.23
2019-06-01T05:28:29.272Z,21.00
2019-06-01T05:31:52.097Z,23.95
2019-06-01T05:35:15.830Z,22.67
2019-06-01T05:38:38.854Z,22.87
2019-06-01T05:42:01.651Z,23.40
2019-06-01T05:45:24.622Z,24.87
2019-06-01T05:48:47.450Z,22.70
2019-06-01T05:52:10.377Z,23.80
2019-06-01T05:55:32.977Z,24.07
2019-06-01T05:58:55.756Z,23.70
2019-06-01T06:02:19.484Z,23.77
2019-06-01T06:05:42.073Z,21.87
2019-06-01T06:09:06.157Z,22.50
2019-06-01T06:12:28.575Z,22.90
2019-06-01T06:15:51.071Z,22.70
2019-06-01T06:19:14.203Z,21.65
2019-06-01T06:22:41.136Z,22.23
2019-06-01T06:26:02.520Z,22.37
2019-06-01T06:29:25.373Z,21.27
2019-06-01T06:32:47.905Z,21.27
2019-06-01T06:36:10.836Z,21.27
2019-06-01T06:39:33.406Z,20.27
2019-06-01T06:42:55.942Z,22.13
2019-06-01T06:46:18.714Z,20.43
2019-06-01T06:49:40.911Z,20.17
2019-06-01T06:53:03.732Z,19.85
2019-06-01T06:56:26.243Z,16.80
2019-06-01T06:59:48.639Z,17.23
2019-06-01T07:03:11.313Z,17.60
2019-06-01T07:06:34.558Z,16.52
2019-06-01T07:09:56.666Z,17.02
2019-06-01T07:13:19.296Z,15.53
2019-06-01T07:16:41.756Z,14.20
2019-06-01T07:20:04.841Z,14.00
2019-06-01T07:23:27.882Z,14.65
2019-06-01T07:26:50.345Z,13.43
2019-06-01T07:30:13.111Z,13.20
2019-06-01T07:33:35.412Z,13.48
2019-06-01T07:36:58.041Z,13.38
2019-06-01T07:40:21.018Z,12.53
2019-06-01T07:43:43.521Z,12.98
2019-06-01T07:47:05.884Z,13.68
2019-06-01T07:50:28.684Z,13.25
2019-06-01T07:53:51.020Z,12.58
2019-06-01T07:57:13.464Z,12.75
2019-06-01T08:00:36.279Z,11.22
2019-06-01T08:03:58.328Z,10.60
2019-06-01T08:07:21.423Z,11.15
2019-06-01T08:10:45.465Z,11.78
2019-06-01T08:14:07.874Z,9.50
2019-06-01T08:17:30.165Z,9.80
2019-06-01T08:20:52.687Z,9.40
2019-06-01T08:24:15.612Z,8.85
2019-06-01T08:27:38.325Z,8.13
2019-06-01T08:31:00.743Z,8.68
2019-06-01T08:34:23.160Z,7.40
2019-06-01T08:37:45.716Z,7.20
2019-06-01T08:41:08.344Z,7.20
2019-06-01T08:44:31.676Z,6.47
2019-06-01T08:47:54.128Z,6.60
2019-06-01T08:51:16.385Z,6.80
2019-06-01T08:54:38.975Z,7.53
2019-06-01T08:58:01.392Z,6.47
2019-06-01T09:01:24.530Z,6.50
2019-06-01T09:04:46.862Z,6.60
2019-06-01T09:08:08.952Z,6.75
2019-06-01T09:11:31.285Z,6.72
2019-06-01T09:14:53.712Z,7.08
2019-06-01T09:18:16.378Z,6.97
2019-06-01T09:21:39.041Z,7.17
2019-06-01T09:25:01.055Z,6.95
2019-06-01T09:28:23.824Z,6.78
2019-06-01T09:31:46.542Z,6.37
2019-06-01T09:35:09.109Z,5.20
2019-06-01T09:38:31.698Z,5.90
2019-06-01T09:41:54.200Z,7.10
2019-06-01T09:45:17.150Z,5.60
2019-06-01T09:48:39.528Z,5.95
2019-06-01T09:52:02.233Z,5.25
2019-06-01T09:55:25.151Z,5.92
2019-06-01T09:58:47.687Z,6.00
2019-06-01T10:02:10.777Z,6.53
2019-06-01T10:05:34.803Z,6.10
2019-06-01T10:08:57.552Z,6.50
2019-06-01T10:12:20.314Z,6.40
2019-06-01T10:15:43.279Z,6.00
2019-06-01T10:19:05.934Z,6.33
2019-06-01T10:22:28.551Z,6.28
2019-06-01T10:25:51.276Z,5.85
2019-06-01T10:29:13.908Z,6.72
2019-06-01T10:32:37.873Z,6.28
2019-06-01T10:36:18.632Z,6.62
2019-06-01T10:39:25.026Z,7.15
2019-06-01T10:42:47.941Z,8.23
2019-06-01T10:46:10.527Z,6.15
2019-06-01T10:49:33.837Z,5.22
2019-06-01T10:52:56.644Z,5.47
2019-06-01T10:56:19.234Z,6.25
2019-06-01T10:59:42.632Z,6.85
2019-06-01T11:03:06.100Z,6.67
2019-06-01T11:06:38.827Z,4.95
2019-06-01T11:09:53.020Z,7.45
2019-06-01T11:13:15.984Z,5.90
2019-06-01T11:16:39.492Z,22.02
2019-06-01T11:20:02.255Z,5.87
2019-06-01T11:23:25.100Z,6.35
2019-06-01T11:26:47.700Z,5.87
2019-06-01T11:30:11.466Z,5.47
2019-06-01T11:33:34.213Z,4.90
2019-06-01T11:37:05.063Z,5.60
2019-06-01T11:40:21.478Z,5.05
2019-06-01T11:43:45.909Z,4.35
2019-06-01T11:47:08.150Z,4.72
2019-06-01T11:50:30.700Z,5.10
2019-06-01T11:53:53.510Z,6.03
2019-06-01T11:57:16.054Z,5.92
2019-06-01T12:00:39.538Z,6.42
2019-06-01T12:04:02.517Z,4.75
2019-06-01T12:07:24.778Z,6.92
2019-06-01T12:10:47.846Z,3.90
2019-06-01T12:14:10.182Z,4.78
2019-06-01T12:17:32.628Z,6.67
2019-06-01T12:20:55.110Z,4.67
2019-06-01T12:24:17.578Z,4.20
2019-06-01T12:27:40.090Z,4.50
2019-06-01T12:31:02.470Z,5.50
2019-06-01T12:34:24.613Z,4.50
2019-06-01T12:38:04.409Z,4.30
2019-06-01T12:41:11.106Z,4.37
2019-06-01T12:44:33.578Z,4.30
2019-06-01T12:47:58.605Z,4.50
2019-06-01T12:51:20.086Z,4.45
2019-06-01T12:54:42.944Z,4.00
2019-06-01T12:58:05.476Z,4.00
2019-06-01T13:01:27.908Z,4.10
2019-06-01T13:04:50.299Z,3.37
2019-06-01T13:08:12.947Z,4.87
2019-06-01T13:11:35.119Z,3.58
2019-06-01T13:14:57.903Z,4.20
2019-06-01T13:18:20.527Z,8.95
2019-06-01T13:21:43.316Z,3.85
2019-06-01T13:25:06.814Z,3.30
2019-06-01T13:28:38.067Z,3.40
2019-06-01T13:31:53.629Z,4.22
2019-06-01T13:35:15.818Z,6.10
2019-06-01T13:38:38.544Z,3.70
2019-06-01T13:42:00.890Z,3.75
2019-06-01T13:45:23.431Z,4.20
2019-06-01T13:48:45.837Z,3.30
2019-06-01T13:52:08.264Z,3.30
2019-06-01T13:55:30.633Z,4.75
2019-06-01T13:58:54.390Z,3.30
2019-06-01T14:02:16.990Z,3.35
2019-06-01T14:05:39.598Z,4.40
2019-06-01T14:09:01.937Z,3.52
2019-06-01T14:12:24.479Z,3.52
2019-06-01T14:15:47.367Z,3.10
2019-06-01T14:19:10.084Z,3.42
2019-06-01T14:22:32.931Z,3.47
2019-06-01T14:25:56.279Z,3.80
2019-06-01T14:29:19.277Z,4.37
2019-06-01T14:32:42.024Z,6.75
2019-06-01T14:36:04.144Z,3.10
2019-06-01T14:39:26.228Z,3.08
2019-06-01T14:42:49.046Z,3.08
2019-06-01T14:46:11.621Z,3.55
2019-06-01T14:49:33.861Z,3.37
2019-06-01T14:52:56.309Z,3.22
2019-06-01T14:56:18.435Z,2.95
2019-06-01T14:59:41.091Z,3.80
2019-06-01T15:03:03.896Z,3.77
2019-06-01T15:06:25.995Z,3.50
2019-06-01T15:09:48.445Z,3.62
2019-06-01T15:13:10.586Z,3.30
2019-06-01T15:16:33.346Z,3.80
2019-06-01T15:19:56.184Z,3.20
2019-06-01T15:23:18.836Z,5.17
2019-06-01T15:26:41.291Z,3.65
2019-06-01T15:30:04.133Z,4.25
2019-06-01T15:33:26.696Z,3.90
2019-06-01T15:36:49.158Z,3.30
2019-06-01T15:40:12.077Z,4.37
2019-06-01T15:43:34.816Z,3.60
2019-06-01T15:46:57.686Z,3.58
2019-06-01T15:50:20.861Z,3.80
2019-06-01T15:53:43.558Z,3.10
2019-06-01T15:57:06.252Z,3.65
2019-06-01T16:00:29.056Z,3.30
2019-06-01T16:03:53.063Z,3.67
2019-06-01T16:07:15.878Z,3.70
2019-06-01T16:10:38.732Z,3.15
2019-06-01T16:14:01.857Z,4.78
2019-06-01T16:17:24.642Z,3.92
2019-06-01T16:20:48.065Z,2.87
2019-06-01T16:24:10.650Z,3.65
2019-06-01T16:27:33.410Z,3.50
2019-06-01T16:30:56.407Z,2.87
2019-06-01T16:34:19.191Z,2.75
2019-06-01T16:37:41.725Z,3.45
2019-06-01T16:41:05.465Z,3.50
2019-06-01T16:44:28.267Z,2.45
2019-06-01T16:47:50.734Z,4.42
2019-06-01T16:51:13.134Z,3.20
2019-06-01T16:54:35.790Z,3.55
2019-06-01T16:57:58.940Z,5.00
2019-06-01T17:01:21.791Z,3.45
2019-06-01T17:04:44.499Z,3.20
2019-06-01T17:08:07.046Z,5.20
2019-06-01T17:11:29.857Z,3.02
2019-06-01T17:14:52.122Z,3.77
2019-06-01T17:18:14.284Z,3.77
2019-06-01T17:21:36.948Z,3.45
2019-06-01T17:24:59.666Z,3.75
2019-06-01T17:28:22.077Z,4.25
2019-06-01T17:31:54.033Z,4.00
2019-06-01T17:35:09.067Z,4.50
2019-06-01T17:38:31.527Z,4.67
2019-06-01T17:41:53.622Z,4.30
2019-06-01T17:45:16.458Z,4.30
2019-06-01T17:48:38.634Z,4.72
2019-06-01T17:52:01.806Z,4.22
2019-06-01T17:55:36.259Z,3.85
2019-06-01T17:58:58.652Z,4.85
2019-06-01T18:02:21.215Z,4.17
2019-06-01T18:05:44.057Z,5.00
2019-06-01T18:09:08.251Z,5.00
2019-06-01T18:12:30.897Z,5.47
2019-06-01T18:15:53.345Z,7.17
2019-06-01T18:19:15.821Z,5.78
2019-06-01T18:22:38.441Z,8.05
2019-06-01T18:26:02.540Z,6.83
2019-06-01T18:29:25.519Z,6.83
2019-06-01T18:32:48.550Z,6.87
2019-06-01T18:36:11.614Z,6.67
2019-06-01T18:39:33.917Z,7.17
2019-06-01T18:43:03.781Z,7.42
2019-06-01T18:46:26.154Z,7.33
2019-06-01T18:49:48.620Z,4.20
2019-06-01T18:53:12.163Z,4.22
2019-06-01T18:56:34.591Z,4.00
2019-06-01T18:59:56.738Z,4.28
2019-06-01T19:03:19.251Z,4.53
2019-06-01T19:06:41.349Z,4.72
2019-06-01T19:10:05.242Z,4.40
2019-06-01T19:13:27.620Z,4.90
2019-06-01T19:16:50.728Z,4.40
2019-06-01T19:20:15.306Z,5.53
2019-06-01T19:23:37.515Z,9.35
2019-06-01T19:26:59.776Z,13.83
2019-06-01T19:30:47.768Z,6.65
2019-06-01T19:34:10.948Z,8.75
2019-06-01T19:37:37.868Z,6.97
2019-06-01T19:40:58.414Z,6.65
2019-06-01T19:44:20.770Z,7.37
2019-06-01T19:47:43.193Z,6.50
2019-06-01T19:51:05.629Z,6.30
2019-06-01T19:54:28.293Z,7.55
2019-06-01T19:57:50.930Z,8.15
2019-06-01T20:01:14.184Z,11.15
2019-06-01T20:04:36.259Z,7.45
2019-06-01T20:07:59.003Z,9.65
2019-06-01T20:11:21.437Z,8.00
2019-06-01T20:14:43.916Z,14.03
2019-06-01T20:18:06.567Z,7.80
2019-06-01T20:21:29.037Z,7.10
2019-06-01T20:24:51.484Z,9.10
2019-06-01T20:28:15.526Z,11.05
2019-06-01T20:31:38.119Z,9.58
2019-06-01T20:35:00.553Z,10.48
2019-06-01T20:38:23.447Z,9.98
2019-06-01T20:41:45.978Z,9.75
2019-06-01T20:45:08.851Z,8.50
2019-06-01T20:48:31.532Z,7.53
2019-06-01T20:51:53.638Z,7.75
2019-06-01T20:55:19.008Z,8.05
2019-06-01T20:58:41.634Z,7.97
2019-06-01T21:02:04.460Z,9.03
2019-06-01T21:05:26.967Z,11.12
2019-06-01T21:08:49.371Z,8.53
2019-06-01T21:12:12.145Z,8.63
2019-06-01T21:15:34.749Z,9.95
2019-06-01T21:18:57.580Z,8.80
2019-06-01T21:22:20.656Z,8.63
2019-06-01T21:25:43.281Z,8.60
2019-06-01T21:29:05.863Z,8.55
2019-06-01T21:32:28.775Z,8.30
2019-06-01T21:35:51.485Z,8.25
2019-06-01T21:39:15.334Z,7.90
2019-06-01T21:42:38.698Z,8.53
2019-06-01T21:46:02.096Z,8.33
2019-06-01T21:49:25.863Z,7.70
2019-06-01T21:52:48.832Z,7.30
2019-06-01T21:56:11.285Z,7.87
2019-06-01T21:59:33.453Z,7.57
2019-06-01T22:02:55.835Z,8.17
2019-06-01T22:06:19.081Z,7.53
2019-06-01T22:09:41.214Z,9.00
2019-06-01T22:13:17.505Z,8.48
2019-06-01T22:16:27.983Z,8.40
2019-06-01T22:19:50.430Z,9.00
2019-06-01T22:23:12.769Z,9.23
2019-06-01T22:26:35.117Z,10.23
2019-06-01T22:29:57.489Z,10.75
2019-06-01T22:33:21.347Z,10.30
2019-06-01T22:36:43.830Z,9.90
2019-06-01T22:40:06.991Z,10.08
2019-06-01T22:43:42.414Z,9.37
2019-06-01T22:46:53.275Z,9.43
2019-06-01T22:50:16.515Z,9.50
2019-06-01T22:53:38.663Z,9.38
2019-06-01T22:57:01.390Z,9.03
2019-06-01T23:00:23.844Z,9.70
2019-06-01T23:03:46.314Z,9.67
2019-06-01T23:07:08.787Z,10.40
2019-06-01T23:10:34.930Z,9.70
2019-06-01T23:13:55.356Z,10.37
2019-06-01T23:17:17.406Z,10.67
2019-06-01T23:20:41.391Z,11.27
2019-06-01T23:24:03.890Z,10.27
2019-06-01T23:27:26.467Z,10.67
2019-06-01T23:30:48.863Z,10.17
2019-06-01T23:34:11.158Z,10.70
2019-06-01T23:37:33.346Z,10.93
2019-06-01T23:40:55.666Z,10.90
2019-06-01T23:44:18.139Z,11.20
2019-06-01T23:47:40.879Z,12.07
2019-06-01T23:51:03.742Z,11.67
2019-06-01T23:54:27.494Z,12.27
2019-06-01T23:57:49.821Z,12.50
